sensor_id;sensor_type;location;lat;lon;timestamp;pressure;altitude;pressure_sealevel;temperature;humidity
24752;BME280;27246;52.376;4.628;2022-12-18T00:04:31;102636.25;;;-3.39;98.64
24752;BME280;27246;52.376;4.628;2022-12-18T00:09:33;102640.59;;;-3.35;98.53
24752;BME280;27246;52.376;4.628;2022-12-18T00:14:41;102627.75;;;-3.27;99.32
24752;BME280;27246;52.376;4.628;2022-12-18T00:19:42;102646.88;;;-3.35;99.54
24752;BME280;27246;52.376;4.628;2022-12-18T00:24:44;102631.03;;;-3.17;99.94
24752;BME280;27246;52.376;4.628;2022-12-18T00:29:47;102641.56;;;-3.10;98.45
24752;BME280;27246;52.376;4.628;2022-12-18T00:34:49;102639.94;;;-3.15;98.26
24752;BME280;27246;52.376;4.628;2022-12-18T00:39:51;102619.84;;;-3.32;98.50
24752;BME280;27246;52.376;4.628;2022-12-18T00:44:53;102639.09;;;-3.17;98.91
24752;BME280;27246;52.376;4.628;2022-12-18T00:49:55;102632.31;;;-3.29;97.51
24752;BME280;27246;52.376;4.628;2022-12-18T00:54:57;102631.06;;;-3.46;97.93
24752;BME280;27246;52.376;4.628;2022-12-18T01:05:58;102637.50;;;-3.23;99.33
24752;BME280;27246;52.376;4.628;2022-12-18T01:11:00;102647.56;;;-3.28;98.23
24752;BME280;27246;52.376;4.628;2022-12-18T01:16:02;102646.59;;;-3.54;98.16
24752;BME280;27246;52.376;4.628;2022-12-18T01:21:08;102647.47;;;-3.53;98.76
24752;BME280;27246;52.376;4.628;2022-12-18T01:26:16;102649.84;;;-3.16;97.83
24752;BME280;27246;52.376;4.628;2022-12-18T01:31:21;102655.69;;;-3.58;97.55
24752;BME280;27246;52.376;4.628;2022-12-18T01:36:25;102658.34;;;-3.56;98.23
24752;BME280;27246;52.376;4.628;2022-12-18T01:41:29;102656.56;;;-3.03;98.02
24752;BME280;27246;52.376;4.628;2022-12-18T01:46:51;102659.63;;;-3.13;96.62
24752;BME280;27246;52.376;4.628;2022-12-18T01:51:53;102665.94;;;-3.14;96.35
24752;BME280;27246;52.376;4.628;2022-12-18T01:56:54;102675.47;;;-3.31;96.09
24752;BME280;27246;52.376;4.628;2022-12-18T02:01:56;102692.44;;;-3.27;97.26
24752;BME280;27246;52.376;4.628;2022-12-18T02:07:14;102694.78;;;-3.45;96.26
24752;BME280;27246;52.376;4.628;2022-12-18T02:12:20;102694.38;;;-3.32;97.08
24752;BME280;27246;52.376;4.628;2022-12-18T02:17:34;102692.81;;;-3.39;96.04
24752;BME280;27246;52.376;4.628;2022-12-18T02:28:31;102677.53;;;-3.39;97.26
24752;BME280;27246;52.376;4.628;2022-12-18T02:33:39;102657.69;;;-3.36;95.64
24752;BME280;27246;52.376;4.628;2022-12-18T02:38:43;102667.13;;;-3.50;96.20
24752;BME280;27246;52.376;4.628;2022-12-18T02:43:55;102663.03;;;-3.35;95.04
24752;BME280;27246;52.376;4.628;2022-12-18T02:49:13;102645.00;;;-3.61;96.41
24752;BME280;27246;52.376;4.628;2022-12-18T02:59:36;102643.75;;;-3.49;97.03
24752;BME280;27246;52.376;4.628;2022-12-18T03:05:03;102640.38;;;-3.56;96.06
24752;BME280;27246;52.376;4.628;2022-12-18T03:10:11;102646.38;;;-3.48;95.89
24752;BME280;27246;52.376;4.628;2022-12-18T03:15:28;102638.03;;;-3.12;95.57
24752;BME280;27246;52.376;4.628;2022-12-18T03:20:42;102638.81;;;-3.36;94.11
24752;BME280;27246;52.376;4.628;2022-12-18T03:25:51;102637.38;;;-3.47;93.41
24752;BME280;27246;52.376;4.628;2022-12-18T03:30:58;102634.00;;;-3.53;94.34
24752;BME280;27246;52.376;4.628;2022-12-18T03:36:03;102634.22;;;-3.33;94.80
24752;BME280;27246;52.376;4.628;2022-12-18T03:42:03;102628.13;;;-3.66;94.73
24752;BME280;27246;52.376;4.628;2022-12-18T03:47:37;102609.31;;;-3.39;94.76
24752;BME280;27246;52.376;4.628;2022-12-18T03:52:53;102604.31;;;-3.25;94.67
24752;BME280;27246;52.376;4.628;2022-12-18T03:57:59;102591.66;;;-3.48;93.63
24752;BME280;27246;52.376;4.628;2022-12-18T04:03:13;102599.59;;;-3.45;93.91
24752;BME280;27246;52.376;4.628;2022-12-18T04:08:21;102594.13;;;-3.42;93.64
24752;BME280;27246;52.376;4.628;2022-12-18T04:13:36;102594.19;;;-3.72;94.17
24752;BME280;27246;52.376;4.628;2022-12-18T04:18:43;102601.59;;;-3.78;93.99
24752;BME280;27246;52.376;4.628;2022-12-18T04:23:46;102615.28;;;-3.86;93.42
24752;BME280;27246;52.376;4.628;2022-12-18T04:28:48;102613.66;;;-3.92;93.28
24752;BME280;27246;52.376;4.628;2022-12-18T04:33:50;102608.13;;;-3.87;93.25
24752;BME280;27246;52.376;4.628;2022-12-18T04:38:52;102620.50;;;-4.10;92.83
24752;BME280;27246;52.376;4.628;2022-12-18T04:43:54;102638.50;;;-4.12;93.22
24752;BME280;27246;52.376;4.628;2022-12-18T04:48:56;102639.38;;;-4.11;93.49
24752;BME280;27246;52.376;4.628;2022-12-18T04:53:58;102633.47;;;-3.93;94.35
24752;BME280;27246;52.376;4.628;2022-12-18T04:59:00;102633.78;;;-3.75;93.62
24752;BME280;27246;52.376;4.628;2022-12-18T05:04:02;102631.84;;;-3.70;91.34
24752;BME280;27246;52.376;4.628;2022-12-18T05:09:04;102637.88;;;-3.62;90.87
24752;BME280;27246;52.376;4.628;2022-12-18T05:14:06;102640.81;;;-3.42;89.92
24752;BME280;27246;52.376;4.628;2022-12-18T05:19:08;102652.56;;;-3.44;90.04
24752;BME280;27246;52.376;4.628;2022-12-18T05:24:09;102653.84;;;-3.56;88.59
24752;BME280;27246;52.376;4.628;2022-12-18T05:29:11;102635.19;;;-3.62;88.43
24752;BME280;27246;52.376;4.628;2022-12-18T05:34:14;102618.41;;;-3.70;88.73
24752;BME280;27246;52.376;4.628;2022-12-18T05:39:16;102623.84;;;-3.73;88.52
24752;BME280;27246;52.376;4.628;2022-12-18T05:44:17;102611.22;;;-3.71;88.92
24752;BME280;27246;52.376;4.628;2022-12-18T05:49:19;102616.63;;;-3.71;88.45
24752;BME280;27246;52.376;4.628;2022-12-18T05:54:21;102612.81;;;-3.64;87.79
24752;BME280;27246;52.376;4.628;2022-12-18T05:59:23;102611.03;;;-3.65;87.33
24752;BME280;27246;52.376;4.628;2022-12-18T06:04:26;102600.81;;;-3.82;87.20
24752;BME280;27246;52.376;4.628;2022-12-18T06:09:29;102614.16;;;-3.79;87.36
24752;BME280;27246;52.376;4.628;2022-12-18T06:14:31;102613.03;;;-4.00;86.56
24752;BME280;27246;52.376;4.628;2022-12-18T06:19:32;102606.63;;;-3.96;87.64
24752;BME280;27246;52.376;4.628;2022-12-18T06:24:34;102596.88;;;-4.00;86.33
24752;BME280;27246;52.376;4.628;2022-12-18T06:29:35;102563.09;;;-4.10;87.11
24752;BME280;27246;52.376;4.628;2022-12-18T06:34:37;102556.34;;;-4.24;86.29
24752;BME280;27246;52.376;4.628;2022-12-18T06:39:39;102569.72;;;-4.20;85.98
24752;BME280;27246;52.376;4.628;2022-12-18T06:44:40;102572.53;;;-3.97;85.40
24752;BME280;27246;52.376;4.628;2022-12-18T06:49:42;102563.09;;;-4.10;85.12
24752;BME280;27246;52.376;4.628;2022-12-18T06:54:44;102553.38;;;-4.14;84.84
24752;BME280;27246;52.376;4.628;2022-12-18T06:59:46;102542.00;;;-4.24;84.25
24752;BME280;27246;52.376;4.628;2022-12-18T07:04:48;102542.50;;;-4.11;83.32
24752;BME280;27246;52.376;4.628;2022-12-18T07:09:50;102540.34;;;-4.00;83.97
24752;BME280;27246;52.376;4.628;2022-12-18T07:14:52;102541.22;;;-3.99;83.64
24752;BME280;27246;52.376;4.628;2022-12-18T07:19:54;102524.59;;;-4.12;83.15
24752;BME280;27246;52.376;4.628;2022-12-18T07:24:56;102508.47;;;-4.12;82.75
24752;BME280;27246;52.376;4.628;2022-12-18T07:29:57;102506.47;;;-4.07;81.86
24752;BME280;27246;52.376;4.628;2022-12-18T07:34:59;102488.47;;;-4.05;82.43
24752;BME280;27246;52.376;4.628;2022-12-18T07:40:01;102458.22;;;-3.85;82.46
24752;BME280;27246;52.376;4.628;2022-12-18T07:45:03;102453.28;;;-3.99;80.88
24752;BME280;27246;52.376;4.628;2022-12-18T07:50:05;102449.63;;;-4.23;81.57
24752;BME280;27246;52.376;4.628;2022-12-18T07:55:07;102473.53;;;-4.14;82.13
24752;BME280;27246;52.376;4.628;2022-12-18T08:00:10;102491.53;;;-4.16;81.57
24752;BME280;27246;52.376;4.628;2022-12-18T08:05:14;102496.22;;;-4.23;81.38
24752;BME280;27246;52.376;4.628;2022-12-18T08:10:16;102487.00;;;-4.15;81.33
24752;BME280;27246;52.376;4.628;2022-12-18T08:15:18;102494.31;;;-4.19;80.52
24752;BME280;27246;52.376;4.628;2022-12-18T08:20:20;102502.31;;;-4.17;80.87
24752;BME280;27246;52.376;4.628;2022-12-18T08:25:21;102501.88;;;-4.04;80.69
24752;BME280;27246;52.376;4.628;2022-12-18T08:30:23;102489.25;;;-4.02;79.61
24752;BME280;27246;52.376;4.628;2022-12-18T08:35:25;102493.66;;;-3.99;79.94
24752;BME280;27246;52.376;4.628;2022-12-18T08:40:30;102483.84;;;-4.00;79.88
24752;BME280;27246;52.376;4.628;2022-12-18T08:45:33;102489.09;;;-3.97;79.66
24752;BME280;27246;52.376;4.628;2022-12-18T08:50:35;102488.03;;;-3.91;79.68
24752;BME280;27246;52.376;4.628;2022-12-18T08:55:37;102484.47;;;-3.92;79.59
24752;BME280;27246;52.376;4.628;2022-12-18T09:00:39;102496.31;;;-3.97;79.63
24752;BME280;27246;52.376;4.628;2022-12-18T09:05:41;102511.38;;;-3.92;79.61
24752;BME280;27246;52.376;4.628;2022-12-18T09:10:48;102486.63;;;-4.03;79.63
24752;BME280;27246;52.376;4.628;2022-12-18T09:15:52;102482.72;;;-3.93;79.91
24752;BME280;27246;52.376;4.628;2022-12-18T09:20:54;102475.88;;;-3.76;80.20
24752;BME280;27246;52.376;4.628;2022-12-18T09:25:59;102469.09;;;-3.88;79.31
24752;BME280;27246;52.376;4.628;2022-12-18T09:31:05;102479.25;;;-3.70;80.27
24752;BME280;27246;52.376;4.628;2022-12-18T09:36:11;102460.75;;;-3.80;79.69
24752;BME280;27246;52.376;4.628;2022-12-18T09:46:25;102434.72;;;-3.80;79.88
24752;BME280;27246;52.376;4.628;2022-12-18T09:51:33;102447.31;;;-3.80;79.98
24752;BME280;27246;52.376;4.628;2022-12-18T09:56:40;102443.47;;;-4.00;81.85
24752;BME280;27246;52.376;4.628;2022-12-18T10:01:42;102458.50;;;-3.93;82.30
24752;BME280;27246;52.376;4.628;2022-12-18T10:07:04;102451.25;;;-3.91;82.49
24752;BME280;27246;52.376;4.628;2022-12-18T10:12:28;102457.59;;;-3.93;82.58
24752;BME280;27246;52.376;4.628;2022-12-18T10:17:47;102452.94;;;-3.88;83.07
24752;BME280;27246;52.376;4.628;2022-12-18T10:28:10;102437.47;;;-3.31;80.37
24752;BME280;27246;52.376;4.628;2022-12-18T10:33:16;102429.00;;;-3.21;79.95
24752;BME280;27246;52.376;4.628;2022-12-18T10:48:30;102394.78;;;-3.18;80.45
24752;BME280;27246;52.376;4.628;2022-12-18T10:53:35;102393.06;;;-2.96;78.72
24752;BME280;27246;52.376;4.628;2022-12-18T10:58:38;102389.00;;;-3.08;79.86
24752;BME280;27246;52.376;4.628;2022-12-18T11:03:44;102396.63;;;-2.95;79.72
24752;BME280;27246;52.376;4.628;2022-12-18T11:09:19;102396.09;;;-2.82;79.83
24752;BME280;27246;52.376;4.628;2022-12-18T11:14:42;102377.50;;;-2.89;78.59
24752;BME280;27246;52.376;4.628;2022-12-18T11:20:04;102376.69;;;-2.91;78.71
24752;BME280;27246;52.376;4.628;2022-12-18T11:25:18;102370.84;;;-2.81;78.39
24752;BME280;27246;52.376;4.628;2022-12-18T11:30:36;102366.75;;;-2.67;78.26
24752;BME280;27246;52.376;4.628;2022-12-18T11:46:10;102327.41;;;-2.73;77.06
24752;BME280;27246;52.376;4.628;2022-12-18T11:51:32;102302.81;;;-2.65;78.24
24752;BME280;27246;52.376;4.628;2022-12-18T11:56:35;102301.19;;;-2.47;77.57
24752;BME280;27246;52.376;4.628;2022-12-18T12:01:59;102295.69;;;-2.46;77.63
24752;BME280;27246;52.376;4.628;2022-12-18T12:17:45;102277.31;;;-2.36;77.09
24752;BME280;27246;52.376;4.628;2022-12-18T12:23:17;102275.03;;;-2.25;76.74
24752;BME280;27246;52.376;4.628;2022-12-18T12:39:36;102245.66;;;-2.12;76.74
24752;BME280;27246;52.376;4.628;2022-12-18T12:44:43;102243.94;;;-2.13;76.86
24752;BME280;27246;52.376;4.628;2022-12-18T12:49:49;102236.69;;;-2.12;76.86
24752;BME280;27246;52.376;4.628;2022-12-18T12:54:52;102232.91;;;-2.08;76.34
24752;BME280;27246;52.376;4.628;2022-12-18T13:00:09;102224.00;;;-2.10;76.50
24752;BME280;27246;52.376;4.628;2022-12-18T13:10:45;102205.84;;;-2.07;77.16
24752;BME280;27246;52.376;4.628;2022-12-18T13:16:05;102202.94;;;-2.02;76.95
24752;BME280;27246;52.376;4.628;2022-12-18T13:21:22;102192.72;;;-1.95;77.24
24752;BME280;27246;52.376;4.628;2022-12-18T13:36:40;102142.91;;;-1.88;76.07
24752;BME280;27246;52.376;4.628;2022-12-18T13:41:46;102136.13;;;-1.97;76.22
24752;BME280;27246;52.376;4.628;2022-12-18T13:46:50;102129.03;;;-1.81;75.96
24752;BME280;27246;52.376;4.628;2022-12-18T13:51:54;102124.44;;;-1.78;76.34
24752;BME280;27246;52.376;4.628;2022-12-18T13:56:56;102122.03;;;-1.85;76.38
24752;BME280;27246;52.376;4.628;2022-12-18T14:02:00;102121.44;;;-1.72;76.58
24752;BME280;27246;52.376;4.628;2022-12-18T14:07:11;102116.03;;;-1.72;76.17
24752;BME280;27246;52.376;4.628;2022-12-18T14:12:24;102114.78;;;-1.65;75.55
24752;BME280;27246;52.376;4.628;2022-12-18T14:17:46;102100.41;;;-1.66;76.16
24752;BME280;27246;52.376;4.628;2022-12-18T14:22:49;102101.13;;;-1.62;75.61
24752;BME280;27246;52.376;4.628;2022-12-18T14:28:13;102077.44;;;-1.57;74.87
24752;BME280;27246;52.376;4.628;2022-12-18T14:33:18;102072.16;;;-1.58;74.94
24752;BME280;27246;52.376;4.628;2022-12-18T14:38:37;102037.59;;;-1.52;75.39
24752;BME280;27246;52.376;4.628;2022-12-18T14:43:40;102042.50;;;-1.43;75.03
24752;BME280;27246;52.376;4.628;2022-12-18T14:48:47;102060.47;;;-1.42;75.09
24752;BME280;27246;52.376;4.628;2022-12-18T14:53:55;102054.34;;;-1.45;74.71
24752;BME280;27246;52.376;4.628;2022-12-18T14:58:59;102051.88;;;-1.50;75.05
24752;BME280;27246;52.376;4.628;2022-12-18T15:04:03;102051.81;;;-1.48;74.71
24752;BME280;27246;52.376;4.628;2022-12-18T15:09:22;102039.97;;;-1.46;74.67
24752;BME280;27246;52.376;4.628;2022-12-18T15:14:39;102026.28;;;-1.43;73.92
24752;BME280;27246;52.376;4.628;2022-12-18T15:19:43;102018.75;;;-1.36;73.88
24752;BME280;27246;52.376;4.628;2022-12-18T15:24:46;102009.63;;;-1.33;73.38
24752;BME280;27246;52.376;4.628;2022-12-18T15:30:21;102006.97;;;-1.35;73.19
24752;BME280;27246;52.376;4.628;2022-12-18T15:35:24;102010.03;;;-1.24;73.39
24752;BME280;27246;52.376;4.628;2022-12-18T15:40:26;102003.28;;;-1.32;72.63
24752;BME280;27246;52.376;4.628;2022-12-18T15:45:28;101997.88;;;-1.32;73.27
24752;BME280;27246;52.376;4.628;2022-12-18T15:50:30;101998.34;;;-1.24;72.75
24752;BME280;27246;52.376;4.628;2022-12-18T15:55:34;101981.47;;;-1.29;73.06
24752;BME280;27246;52.376;4.628;2022-12-18T16:01:01;101973.91;;;-1.23;73.13
24752;BME280;27246;52.376;4.628;2022-12-18T16:06:03;101972.91;;;-1.20;73.21
24752;BME280;27246;52.376;4.628;2022-12-18T16:11:05;101973.34;;;-1.12;72.89
24752;BME280;27246;52.376;4.628;2022-12-18T16:16:08;101973.97;;;-1.07;72.69
24752;BME280;27246;52.376;4.628;2022-12-18T16:21:12;101974.16;;;-1.10;72.60
24752;BME280;27246;52.376;4.628;2022-12-18T16:26:16;101950.69;;;-1.09;72.67
24752;BME280;27246;52.376;4.628;2022-12-18T16:31:19;101940.13;;;-1.14;73.11
24752;BME280;27246;52.376;4.628;2022-12-18T16:36:20;101940.47;;;-1.20;73.31
24752;BME280;27246;52.376;4.628;2022-12-18T16:41:22;101932.88;;;-1.13;73.12
24752;BME280;27246;52.376;4.628;2022-12-18T16:46:34;101919.28;;;-1.12;72.78
24752;BME280;27246;52.376;4.628;2022-12-18T16:51:36;101919.38;;;-1.13;72.90
24752;BME280;27246;52.376;4.628;2022-12-18T16:56:37;101910.78;;;-1.22;73.34
24752;BME280;27246;52.376;4.628;2022-12-18T17:01:39;101908.94;;;-1.21;74.16
24752;BME280;27246;52.376;4.628;2022-12-18T17:06:43;101910.13;;;-1.09;74.45
24752;BME280;27246;52.376;4.628;2022-12-18T17:11:45;101915.22;;;-1.21;74.05
24752;BME280;27246;52.376;4.628;2022-12-18T17:16:47;101900.03;;;-1.06;74.87
24752;BME280;27246;52.376;4.628;2022-12-18T17:22:09;101915.06;;;-1.00;74.24
24752;BME280;27246;52.376;4.628;2022-12-18T17:27:11;101904.66;;;-1.08;74.76
24752;BME280;27246;52.376;4.628;2022-12-18T17:32:13;101904.47;;;-1.05;75.10
24752;BME280;27246;52.376;4.628;2022-12-18T17:37:14;101909.75;;;-1.19;75.30
24752;BME280;27246;52.376;4.628;2022-12-18T17:42:16;101914.56;;;-1.08;75.87
24752;BME280;27246;52.376;4.628;2022-12-18T17:47:18;101898.00;;;-1.18;75.96
24752;BME280;27246;52.376;4.628;2022-12-18T17:52:20;101902.28;;;-1.14;76.32
24752;BME280;27246;52.376;4.628;2022-12-18T17:57:22;101902.72;;;-1.06;76.08
24752;BME280;27246;52.376;4.628;2022-12-18T18:02:24;101893.03;;;-1.10;76.47
24752;BME280;27246;52.376;4.628;2022-12-18T18:07:27;101887.78;;;-1.13;77.01
24752;BME280;27246;52.376;4.628;2022-12-18T18:12:28;101898.06;;;-1.19;76.92
24752;BME280;27246;52.376;4.628;2022-12-18T18:17:49;101884.13;;;-1.12;77.23
24752;BME280;27246;52.376;4.628;2022-12-18T18:22:50;101894.78;;;-1.09;77.67
24752;BME280;27246;52.376;4.628;2022-12-18T18:27:52;101887.97;;;-1.16;77.66
24752;BME280;27246;52.376;4.628;2022-12-18T18:32:54;101886.97;;;-0.97;77.80
24752;BME280;27246;52.376;4.628;2022-12-18T18:37:56;101887.28;;;-1.04;78.03
24752;BME280;27246;52.376;4.628;2022-12-18T18:42:57;101881.69;;;-1.01;78.29
24752;BME280;27246;52.376;4.628;2022-12-18T18:47:59;101889.81;;;-1.01;78.21
24752;BME280;27246;52.376;4.628;2022-12-18T18:53:01;101872.66;;;-0.99;78.79
24752;BME280;27246;52.376;4.628;2022-12-18T18:58:02;101862.28;;;-0.91;79.31
24752;BME280;27246;52.376;4.628;2022-12-18T19:03:06;101870.13;;;-0.87;80.93
24752;BME280;27246;52.376;4.628;2022-12-18T19:08:08;101872.81;;;-1.03;82.55
24752;BME280;27246;52.376;4.628;2022-12-18T19:13:12;101863.91;;;-1.05;84.16
24752;BME280;27246;52.376;4.628;2022-12-18T19:18:25;101856.91;;;-1.09;86.42
24752;BME280;27246;52.376;4.628;2022-12-18T19:23:28;101854.50;;;-0.97;87.58
24752;BME280;27246;52.376;4.628;2022-12-18T19:28:30;101842.97;;;-1.01;88.68
24752;BME280;27246;52.376;4.628;2022-12-18T19:33:35;101855.97;;;-1.08;89.96
24752;BME280;27246;52.376;4.628;2022-12-18T19:38:46;101837.19;;;-1.11;91.63
24752;BME280;27246;52.376;4.628;2022-12-18T19:43:50;101840.19;;;-0.99;92.92
24752;BME280;27246;52.376;4.628;2022-12-18T19:48:52;101836.84;;;-1.05;93.26
24752;BME280;27246;52.376;4.628;2022-12-18T19:53:58;101832.78;;;-0.96;93.97
24752;BME280;27246;52.376;4.628;2022-12-18T19:59:03;101824.56;;;-0.94;94.07
24752;BME280;27246;52.376;4.628;2022-12-18T20:04:05;101819.94;;;-0.92;95.10
24752;BME280;27246;52.376;4.628;2022-12-18T20:09:08;101822.13;;;-0.99;95.46
24752;BME280;27246;52.376;4.628;2022-12-18T20:14:11;101813.31;;;-0.87;96.48
24752;BME280;27246;52.376;4.628;2022-12-18T20:19:13;101808.19;;;-0.91;96.88
24752;BME280;27246;52.376;4.628;2022-12-18T20:24:17;101809.31;;;-0.95;97.51
24752;BME280;27246;52.376;4.628;2022-12-18T20:29:19;101805.81;;;-0.97;98.61
24752;BME280;27246;52.376;4.628;2022-12-18T20:34:21;101790.19;;;-0.76;99.09
24752;BME280;27246;52.376;4.628;2022-12-18T20:39:24;101799.38;;;-0.79;99.36
24752;BME280;27246;52.376;4.628;2022-12-18T20:44:31;101788.19;;;-0.73;99.60
24752;BME280;27246;52.376;4.628;2022-12-18T20:49:33;101784.50;;;-0.72;100.00
24752;BME280;27246;52.376;4.628;2022-12-18T20:54:34;101764.44;;;-0.68;100.00
24752;BME280;27246;52.376;4.628;2022-12-18T20:59:36;101749.59;;;-0.61;100.00
24752;BME280;27246;52.376;4.628;2022-12-18T21:04:42;101751.63;;;-0.80;100.00
24752;BME280;27246;52.376;4.628;2022-12-18T21:09:44;101754.44;;;-0.66;100.00
24752;BME280;27246;52.376;4.628;2022-12-18T21:14:45;101728.69;;;-0.73;100.00
24752;BME280;27246;52.376;4.628;2022-12-18T21:19:48;101738.19;;;-0.66;100.00
24752;BME280;27246;52.376;4.628;2022-12-18T21:24:51;101734.34;;;-0.62;100.00
24752;BME280;27246;52.376;4.628;2022-12-18T21:29:52;101713.84;;;-0.66;100.00
24752;BME280;27246;52.376;4.628;2022-12-18T21:34:54;101709.88;;;-0.60;100.00
24752;BME280;27246;52.376;4.628;2022-12-18T21:39:56;101686.22;;;-0.56;100.00
24752;BME280;27246;52.376;4.628;2022-12-18T21:44:57;101670.66;;;-0.53;100.00
24752;BME280;27246;52.376;4.628;2022-12-18T21:49:59;101682.16;;;-0.64;100.00
24752;BME280;27246;52.376;4.628;2022-12-18T21:55:02;101666.50;;;-0.58;100.00
24752;BME280;27246;52.376;4.628;2022-12-18T22:00:11;101658.47;;;-0.60;100.00
24752;BME280;27246;52.376;4.628;2022-12-18T22:05:20;101647.00;;;-0.49;100.00
24752;BME280;27246;52.376;4.628;2022-12-18T22:10:21;101632.09;;;-0.56;100.00
24752;BME280;27246;52.376;4.628;2022-12-18T22:15:23;101619.25;;;-0.53;100.00
24752;BME280;27246;52.376;4.628;2022-12-18T22:20:24;101605.53;;;-0.50;100.00
24752;BME280;27246;52.376;4.628;2022-12-18T22:25:27;101600.03;;;-0.48;100.00
24752;BME280;27246;52.376;4.628;2022-12-18T22:30:28;101578.59;;;-0.37;100.00
24752;BME280;27246;52.376;4.628;2022-12-18T22:35:31;101580.91;;;-0.45;100.00
24752;BME280;27246;52.376;4.628;2022-12-18T22:40:32;101572.47;;;-0.41;100.00
24752;BME280;27246;52.376;4.628;2022-12-18T22:45:34;101551.13;;;-0.31;100.00
24752;BME280;27246;52.376;4.628;2022-12-18T22:50:39;101550.34;;;-0.33;100.00
24752;BME280;27246;52.376;4.628;2022-12-18T22:55:41;101553.44;;;-0.39;100.00
24752;BME280;27246;52.376;4.628;2022-12-18T23:00:42;101558.09;;;-0.41;100.00
24752;BME280;27246;52.376;4.628;2022-12-18T23:05:44;101563.50;;;-0.27;100.00
24752;BME280;27246;52.376;4.628;2022-12-18T23:10:46;101545.03;;;-0.34;100.00
24752;BME280;27246;52.376;4.628;2022-12-18T23:15:49;101541.16;;;-0.30;100.00
24752;BME280;27246;52.376;4.628;2022-12-18T23:20:51;101524.53;;;-0.24;100.00
24752;BME280;27246;52.376;4.628;2022-12-18T23:26:00;101522.41;;;-0.19;100.00
24752;BME280;27246;52.376;4.628;2022-12-18T23:31:11;101533.72;;;-0.27;100.00
24752;BME280;27246;52.376;4.628;2022-12-18T23:36:16;101533.72;;;-0.12;100.00
24752;BME280;27246;52.376;4.628;2022-12-18T23:41:20;101536.00;;;-0.06;100.00
24752;BME280;27246;52.376;4.628;2022-12-18T23:46:31;101523.28;;;-0.18;100.00
24752;BME280;27246;52.376;4.628;2022-12-18T23:51:33;101502.56;;;-0.20;100.00
24752;BME280;27246;52.376;4.628;2022-12-18T23:56:36;101483.44;;;-0.16;100.00
